Time;durP1;ratioP1;P1;durP2;ratioP2;P2;SDS_P1;SDS_P2;PMS_P1;PMS_P2;Temp;Humidity;BMP_temperature;BMP_pressure;BME280_temperature;BME280_humidity;BME280_pressure;Samples;Min_cycle;Max_cycle;Signal;HPM_P1;HPM_P2
2024/01/14 00:01:20;;;;;;;17.20;10.50;;;;;;;-1.16;96.81;98193.76;272719;1267;22360;-86
2024/01/14 00:07:21;;;;;;;21.80;11.40;;;;;;;-1.14;97.08;98185.39;272479;1276;22263;-86
2024/01/14 00:13:23;;;;;;;17.40;10.30;;;;;;;-1.13;97.20;98177.52;272691;1282;23346;-86
2024/01/14 00:19:25;;;;;;;21.70;12.40;;;;;;;-1.12;97.43;98174.33;272532;1282;22270;-86
2024/01/14 00:25:27;;;;;;;26.50;13.00;;;;;;;-1.12;97.69;98165.29;272600;1276;23005;-86
2024/01/14 00:31:41;;;;;;;20.50;12.40;;;;;;;-1.11;97.76;98162.25;272542;1276;22202;-86
2024/01/14 00:37:43;;;;;;;20.10;11.50;;;;;;;-1.12;97.81;98153.02;272675;1278;22216;-86
2024/01/14 00:43:45;;;;;;;23.00;11.60;;;;;;;-1.09;98.11;98158.64;272527;1275;22318;-85
2024/01/14 00:49:47;;;;;;;19.40;11.50;;;;;;;-1.08;98.31;98147.95;272611;1276;22687;-86
2024/01/14 00:55:49;;;;;;;16.00;9.90;;;;;;;-1.08;98.43;98138.45;271669;1277;22537;-86
2024/01/14 01:01:51;;;;;;;16.50;9.80;;;;;;;-1.07;98.59;98132.80;271348;1275;22302;-85
2024/01/14 01:07:53;;;;;;;18.50;9.90;;;;;;;-1.07;98.78;98127.42;270170;1275;24219;-86
2024/01/14 01:13:55;;;;;;;18.30;10.30;;;;;;;-1.06;98.81;98118.41;269603;1275;22309;-85
2024/01/14 01:19:58;;;;;;;18.10;10.80;;;;;;;-1.05;99.04;98104.65;272654;1277;22902;-86
2024/01/14 01:26:00;;;;;;;16.20;9.70;;;;;;;-1.05;99.15;98088.16;272623;1263;22202;-86
2024/01/14 01:32:02;;;;;;;13.60;8.80;;;;;;;-1.06;99.01;98077.99;272433;1274;22441;-87
2024/01/14 01:38:05;;;;;;;11.70;7.10;;;;;;;-1.05;99.00;98070.73;272602;1276;23645;-86
2024/01/14 01:44:06;;;;;;;12.10;7.40;;;;;;;-1.04;99.00;98062.30;272713;1282;22185;-87
2024/01/14 01:50:09;;;;;;;13.10;7.80;;;;;;;-1.03;99.16;98057.77;272622;1282;22981;-86
2024/01/14 01:56:10;;;;;;;12.50;7.60;;;;;;;-1.01;99.25;98050.05;272642;1267;23197;-85
2024/01/14 02:02:12;;;;;;;13.30;7.40;;;;;;;-1.00;99.47;98040.95;272639;1271;22216;-86
2024/01/14 02:08:14;;;;;;;11.00;6.50;;;;;;;-0.99;99.49;98039.52;270016;1276;22575;-85
2024/01/14 02:14:16;;;;;;;14.60;8.00;;;;;;;-0.98;99.61;98033.79;269327;1275;22569;-85
2024/01/14 02:20:18;;;;;;;10.80;6.10;;;;;;;-0.98;99.39;98026.23;269404;1275;22583;-86
2024/01/14 02:26:20;;;;;;;9.20;6.20;;;;;;;-0.97;99.46;98016.66;270880;1277;22356;-86
2024/01/14 02:39:09;;;;;;;10.80;6.70;;;;;;;-0.98;99.76;97994.27;272369;1277;22248;-85
2024/01/14 02:45:31;;;;;;;10.70;6.50;;;;;;;-0.95;100.00;97995.30;272315;1280;22291;-85
2024/01/14 02:51:33;;;;;;;12.70;6.50;;;;;;;-0.92;99.96;97983.23;272322;1274;22429;-87
2024/01/14 02:57:35;;;;;;;12.50;7.10;;;;;;;-0.93;100.00;97968.84;272405;1281;22226;-84
2024/01/14 03:03:38;;;;;;;13.60;6.60;;;;;;;-0.92;100.00;97967.79;272037;1280;23214;-85
2024/01/14 03:09:39;;;;;;;10.80;6.80;;;;;;;-0.90;100.00;97958.42;272042;1275;22455;-85
2024/01/14 03:15:47;;;;;;;11.10;6.70;;;;;;;-0.90;100.00;97955.14;272426;1277;23035;-85
2024/01/14 03:21:51;;;;;;;12.10;6.50;;;;;;;-0.93;100.00;97940.46;272559;1277;22168;-86
2024/01/14 03:27:53;;;;;;;8.70;6.00;;;;;;;-0.92;100.00;97929.58;271910;1275;22488;-86
2024/01/14 03:33:58;;;;;;;11.60;6.20;;;;;;;-0.89;100.00;97925.84;271635;1274;23797;-87
2024/01/14 03:40:05;;;;;;;9.40;6.00;;;;;;;-0.87;100.00;97921.80;271933;1275;22333;-85
2024/01/14 03:46:40;;;;;;;10.10;6.00;;;;;;;-0.85;100.00;97914.59;272176;1274;23402;-85
2024/01/14 03:52:42;;;;;;;10.60;6.90;;;;;;;-0.83;100.00;97904.05;272326;1275;22386;-86
2024/01/14 03:58:47;;;;;;;10.10;6.40;;;;;;;-0.83;100.00;97898.92;272239;1277;22305;-86
2024/01/14 04:04:52;;;;;;;11.20;6.20;;;;;;;-0.82;100.00;97896.73;272020;1275;22406;-86
2024/01/14 04:10:54;;;;;;;11.40;7.40;;;;;;;-0.81;100.00;97890.09;272498;1277;22464;-85
2024/01/14 04:16:55;;;;;;;11.20;6.80;;;;;;;-0.80;100.00;97892.12;272444;1275;23035;-85
2024/01/14 04:22:57;;;;;;;12.30;7.00;;;;;;;-0.79;100.00;97906.27;272455;1265;22330;-85
2024/01/14 04:29:19;;;;;;;12.40;7.60;;;;;;;-0.79;100.00;97904.52;272483;1277;22214;-85
2024/01/14 04:35:21;;;;;;;11.10;6.80;;;;;;;-0.78;100.00;97895.88;272307;1273;22317;-86
2024/01/14 04:41:23;;;;;;;14.70;8.20;;;;;;;-0.77;100.00;97886.17;272443;1276;22248;-84
2024/01/14 04:47:25;;;;;;;12.20;7.00;;;;;;;-0.78;100.00;97877.14;272400;1277;22185;-85
2024/01/14 04:53:27;;;;;;;12.40;7.50;;;;;;;-0.79;100.00;97868.67;272414;1271;22187;-85
2024/01/14 04:59:31;;;;;;;12.60;7.80;;;;;;;-0.79;100.00;97863.83;272373;1276;22231;-84
2024/01/14 05:05:33;;;;;;;11.40;7.30;;;;;;;-0.77;100.00;97861.20;272635;1278;22208;-84
2024/01/14 05:11:34;;;;;;;13.30;8.60;;;;;;;-0.79;100.00;97862.98;272388;1277;23377;-85
2024/01/14 05:17:45;;;;;;;17.00;8.90;;;;;;;-0.89;100.00;97867.30;272308;1276;22996;-86
2024/01/14 05:23:46;;;;;;;18.00;10.10;;;;;;;-1.02;100.00;97858.67;272305;1277;22311;-86
2024/01/14 05:29:48;;;;;;;15.30;9.60;;;;;;;-1.09;100.00;97855.66;272225;1276;22423;-86
2024/01/14 05:35:50;;;;;;;15.20;9.40;;;;;;;-1.13;100.00;97853.52;272125;1278;22297;-86
2024/01/14 05:41:55;;;;;;;15.00;9.80;;;;;;;-1.14;100.00;97851.02;272267;1275;22193;-87
2024/01/14 05:47:57;;;;;;;17.60;10.10;;;;;;;-1.16;100.00;97855.38;272071;1278;22437;-86
2024/01/14 05:53:59;;;;;;;19.80;10.90;;;;;;;-1.18;100.00;97854.89;272317;1277;22262;-86
2024/01/14 06:00:01;;;;;;;17.70;11.20;;;;;;;-1.19;100.00;97860.84;272095;1277;22219;-86
2024/01/14 06:06:08;;;;;;;21.20;10.90;;;;;;;-1.20;100.00;97871.33;272231;1274;22374;-87
2024/01/14 06:12:10;;;;;;;17.30;10.20;;;;;;;-1.22;100.00;97869.09;272214;1276;22238;-89
2024/01/14 06:18:12;;;;;;;18.80;10.40;;;;;;;-1.24;100.00;97860.56;272334;1279;22312;-89
2024/01/14 06:24:15;;;;;;;20.10;10.90;;;;;;;-1.28;100.00;97849.20;272321;1275;22236;-88
2024/01/14 06:30:17;;;;;;;17.20;10.60;;;;;;;-1.32;100.00;97840.77;272368;1277;23080;-88
2024/01/14 06:36:19;;;;;;;18.30;10.50;;;;;;;-1.34;100.00;97834.59;272422;1276;22407;-87
2024/01/14 06:42:21;;;;;;;16.60;10.80;;;;;;;-1.32;100.00;97832.16;272318;1276;22238;-87
2024/01/14 06:48:23;;;;;;;16.30;8.90;;;;;;;-1.30;100.00;97832.44;272216;1275;22211;-88
2024/01/14 06:54:24;;;;;;;16.30;9.30;;;;;;;-1.26;100.00;97833.05;272164;1275;22403;-87
2024/01/14 07:00:26;;;;;;;14.90;9.80;;;;;;;-1.22;100.00;97837.32;272089;1276;22522;-87
2024/01/14 07:06:30;;;;;;;20.00;11.70;;;;;;;-1.17;100.00;97833.14;272275;1275;22433;-86
2024/01/14 07:12:32;;;;;;;18.40;10.80;;;;;;;-1.14;100.00;97830.95;272288;1274;22981;-87
2024/01/14 07:18:33;;;;;;;15.80;9.60;;;;;;;-1.13;100.00;97830.85;272145;1280;22224;-86
2024/01/14 07:24:35;;;;;;;15.30;9.00;;;;;;;-1.10;100.00;97830.19;272258;1276;22208;-88
2024/01/14 07:30:37;;;;;;;16.60;9.50;;;;;;;-1.05;100.00;97830.15;271893;1275;22262;-88
2024/01/14 07:36:43;;;;;;;14.40;8.20;;;;;;;-0.97;100.00;97821.95;272230;1278;22333;-88
2024/01/14 07:42:45;;;;;;;15.00;8.40;;;;;;;-0.87;100.00;97825.20;272102;1276;22378;-86
2024/01/14 07:48:46;;;;;;;16.20;8.50;;;;;;;-0.83;100.00;97823.15;272270;1278;22263;-88
2024/01/14 07:54:54;;;;;;;15.00;8.40;;;;;;;-0.80;100.00;97818.73;272068;1276;22277;-88
2024/01/14 08:01:10;;;;;;;14.50;9.10;;;;;;;-0.79;100.00;97811.77;272122;1276;22227;-87
2024/01/14 08:07:14;;;;;;;18.30;9.40;;;;;;;-0.79;100.00;97810.95;272182;1276;22249;-87
2024/01/14 08:13:15;;;;;;;19.10;9.70;;;;;;;-0.70;100.00;97814.02;271921;1275;23745;-87
2024/01/14 08:19:22;;;;;;;17.60;9.10;;;;;;;-0.55;100.00;97810.02;271999;1275;22234;-88
2024/01/14 08:25:35;;;;;;;18.70;9.80;;;;;;;-0.50;100.00;97806.58;272015;1276;22976;-88
2024/01/14 08:31:37;;;;;;;17.30;9.20;;;;;;;-0.49;100.00;97812.56;272177;1275;24760;-87
2024/01/14 08:37:42;;;;;;;14.60;8.30;;;;;;;-0.48;100.00;97814.89;272206;1274;22208;-87
2024/01/14 08:43:46;;;;;;;15.40;8.90;;;;;;;-0.45;100.00;97825.65;272267;1277;22134;-86
2024/01/14 08:49:48;;;;;;;15.80;8.90;;;;;;;-0.45;100.00;97832.52;272480;1276;22302;-88
2024/01/14 08:55:51;;;;;;;16.40;9.50;;;;;;;-0.48;100.00;97833.47;272397;1275;22236;-86
2024/01/14 09:02:03;;;;;;;17.60;10.70;;;;;;;-0.51;100.00;97833.84;272260;1276;23475;-86
2024/01/14 09:08:09;;;;;;;17.80;10.50;;;;;;;-0.48;100.00;97836.72;272354;1276;22284;-87
2024/01/14 09:14:11;;;;;;;19.40;11.10;;;;;;;-0.44;100.00;97837.44;272455;1274;23662;-85
2024/01/14 09:20:13;;;;;;;17.50;10.80;;;;;;;-0.40;100.00;97840.06;272335;1276;22200;-87
2024/01/14 09:26:14;;;;;;;19.50;10.70;;;;;;;-0.40;100.00;97845.28;271449;1274;1208577;-87
2024/01/14 09:32:17;;;;;;;22.50;11.80;;;;;;;-0.39;100.00;97841.70;272400;1273;22228;-87
2024/01/14 09:38:19;;;;;;;24.50;12.00;;;;;;;-0.37;100.00;97831.33;272347;1275;22255;-89
2024/01/14 09:44:21;;;;;;;22.70;11.90;;;;;;;-0.30;100.00;97829.02;272392;1277;23470;-88
2024/01/14 09:50:35;;;;;;;24.20;11.80;;;;;;;-0.20;100.00;97822.98;272381;1274;22194;-87
2024/01/14 09:56:37;;;;;;;23.00;11.30;;;;;;;-0.08;100.00;97812.19;272397;1276;22174;-87
2024/01/14 10:02:40;;;;;;;13.50;7.80;;;;;;;0.09;100.00;97803.89;272394;1275;22432;-88
2024/01/14 10:08:43;;;;;;;13.10;7.00;;;;;;;0.20;100.00;97805.55;272318;1274;22316;-87
2024/01/14 10:14:45;;;;;;;13.10;7.60;;;;;;;0.27;100.00;97802.23;272451;1276;22237;-86
2024/01/14 10:20:47;;;;;;;11.90;7.20;;;;;;;0.29;100.00;97805.95;272406;1275;22461;-86
2024/01/14 10:26:55;;;;;;;14.20;7.70;;;;;;;0.30;100.00;97808.65;271346;1274;22376;-87
2024/01/14 10:33:08;;;;;;;14.50;7.70;;;;;;;0.34;100.00;97807.46;272212;1275;22353;-88
2024/01/14 10:39:18;;;;;;;13.30;7.30;;;;;;;0.47;100.00;97804.81;272494;1274;22997;-87
2024/01/14 10:45:20;;;;;;;15.10;7.40;;;;;;;0.58;100.00;97807.23;272602;1275;22432;-86
2024/01/14 10:51:24;;;;;;;15.10;7.40;;;;;;;0.66;100.00;97801.48;272480;1275;22924;-88
2024/01/14 10:57:26;;;;;;;14.60;8.20;;;;;;;0.70;100.00;97791.89;272539;1275;22267;-89
2024/01/14 11:03:29;;;;;;;16.90;8.40;;;;;;;0.77;100.00;97788.20;272234;1277;22414;-88
2024/01/14 11:09:36;;;;;;;16.70;8.30;;;;;;;0.87;100.00;97787.65;272363;1273;22334;-88
2024/01/14 11:15:52;;;;;;;15.90;8.70;;;;;;;0.91;100.00;97783.98;272399;1274;23470;-87
2024/01/14 11:22:06;;;;;;;14.70;8.20;;;;;;;0.96;100.00;97780.67;272459;1276;23069;-88
2024/01/14 11:28:08;;;;;;;14.40;8.00;;;;;;;1.01;100.00;97780.20;272596;1270;22911;-89
2024/01/14 11:34:51;;;;;;;14.70;8.30;;;;;;;1.04;100.00;97780.67;271821;1270;22267;-89
2024/01/14 11:40:54;;;;;;;12.90;7.90;;;;;;;1.07;100.00;97782.16;272560;1274;22207;-89
2024/01/14 11:46:56;;;;;;;13.30;8.10;;;;;;;1.09;100.00;97781.06;272514;1261;22224;-88
2024/01/14 11:53:00;;;;;;;15.00;8.50;;;;;;;1.22;100.00;97774.63;271852;1274;22233;-88
2024/01/14 11:59:09;;;;;;;14.20;7.70;;;;;;;1.37;100.00;97772.98;272060;1275;22936;-88
2024/01/14 12:05:15;;;;;;;15.70;8.60;;;;;;;1.36;100.00;97768.27;271065;1275;22350;-90
2024/01/14 12:11:16;;;;;;;14.10;8.30;;;;;;;1.29;100.00;97764.52;271044;1275;22390;-89
2024/01/14 12:17:21;;;;;;;16.10;8.40;;;;;;;1.26;100.00;97759.02;272090;1275;22215;-88
2024/01/14 12:23:23;;;;;;;17.70;9.00;;;;;;;1.16;100.00;97758.23;271352;1274;25398;-89
2024/01/14 12:29:25;;;;;;;16.40;9.20;;;;;;;1.10;100.00;97761.20;271058;1274;23427;-88
2024/01/14 12:35:35;;;;;;;17.00;9.10;;;;;;;1.03;100.00;97766.77;270603;1276;23103;-90
2024/01/14 12:41:37;;;;;;;17.20;9.40;;;;;;;1.02;100.00;97767.77;271811;1259;22335;-91
2024/01/14 12:47:44;;;;;;;16.40;8.20;;;;;;;1.01;100.00;97767.88;271129;1274;22544;-89
2024/01/14 12:53:56;;;;;;;17.10;9.60;;;;;;;0.97;100.00;97768.53;270518;1275;23832;-89
2024/01/14 13:00:04;;;;;;;15.50;8.10;;;;;;;0.96;100.00;97770.68;271551;1263;23446;-89
2024/01/14 13:06:06;;;;;;;15.50;8.50;;;;;;;1.07;100.00;97772.54;271100;1275;22224;-92
2024/01/14 13:12:09;;;;;;;18.00;8.60;;;;;;;1.20;100.00;97770.73;271750;1275;22286;-90
2024/01/14 13:18:13;;;;;;;15.20;8.20;;;;;;;1.23;100.00;97767.98;271828;1275;24208;-90
2024/01/14 13:24:15;;;;;;;16.30;9.70;;;;;;;1.25;100.00;97764.94;271723;1274;22332;-88
2024/01/14 13:30:18;;;;;;;18.40;9.90;;;;;;;1.22;100.00;97764.77;271069;1275;22320;-89
2024/01/14 13:36:20;;;;;;;18.80;10.50;;;;;;;1.16;100.00;97763.23;271731;1275;22329;-90
2024/01/14 13:42:22;;;;;;;19.70;10.80;;;;;;;1.10;100.00;97760.83;272594;1274;22196;-89
2024/01/14 13:48:26;;;;;;;19.00;10.00;;;;;;;1.07;100.00;97774.69;270663;1274;24467;-89
2024/01/14 13:54:28;;;;;;;18.80;10.00;;;;;;;1.04;100.00;97773.52;272088;1274;22722;-88
2024/01/14 14:00:34;;;;;;;17.70;9.00;;;;;;;1.03;100.00;97773.17;271246;1274;22594;-89
2024/01/14 14:06:36;;;;;;;15.60;7.90;;;;;;;1.00;100.00;97765.33;269743;1275;22545;-89
2024/01/14 14:12:39;;;;;;;17.50;9.00;;;;;;;0.95;100.00;97767.88;270635;1275;23462;-91
2024/01/14 14:18:42;;;;;;;19.00;9.20;;;;;;;0.91;100.00;97768.68;269485;1275;22732;-90
2024/01/14 14:24:43;;;;;;;15.00;8.10;;;;;;;0.85;100.00;97768.20;270063;1273;22562;-90
2024/01/14 14:30:45;;;;;;;16.30;8.50;;;;;;;0.78;100.00;97762.84;269611;1275;22593;-90
2024/01/14 14:36:47;;;;;;;17.50;8.60;;;;;;;0.72;100.00;97756.33;271254;1274;22210;-90
2024/01/14 14:42:49;;;;;;;18.30;8.80;;;;;;;0.70;100.00;97760.95;271617;1274;22629;-89
2024/01/14 14:48:51;;;;;;;20.10;9.60;;;;;;;0.67;100.00;97762.79;271510;1274;22566;-85
2024/01/14 14:54:53;;;;;;;18.30;9.80;;;;;;;0.63;100.00;97766.61;270521;1264;22623;-91
2024/01/14 15:00:59;;;;;;;18.90;9.40;;;;;;;0.59;100.00;97765.86;271182;1273;22953;-90
2024/01/14 15:07:08;;;;;;;17.00;8.70;;;;;;;0.56;100.00;97767.63;271917;1277;22586;-90
2024/01/14 15:13:10;;;;;;;17.10;9.20;;;;;;;0.53;100.00;97767.31;270708;1274;22605;-89
2024/01/14 15:19:13;;;;;;;18.40;9.80;;;;;;;0.50;100.00;97768.77;271141;1274;22453;-90
2024/01/14 15:25:16;;;;;;;17.80;9.80;;;;;;;0.50;100.00;97762.90;271079;1275;23044;-91
2024/01/14 15:31:27;;;;;;;;;;;;;;;0.50;100.00;97763.73;270848;1274;22593;-89
2024/01/14 15:37:30;;;;;;;17.20;9.10;;;;;;;0.47;100.00;97757.90;271313;1274;22978;-89
2024/01/14 15:43:48;;;;;;;20.80;12.00;;;;;;;0.47;100.00;97757.59;271708;1274;22548;-89
2024/01/14 15:50:00;;;;;;;23.60;12.00;;;;;;;0.47;100.00;97755.27;272240;1273;22428;-91
2024/01/14 15:56:20;;;;;;;29.90;13.90;;;;;;;0.41;100.00;97746.02;271511;1277;22555;-90
2024/01/14 16:02:23;;;;;;;31.90;14.30;;;;;;;0.35;100.00;97740.29;271363;1276;22375;-90
2024/01/14 16:08:37;;;;;;;35.70;17.50;;;;;;;0.30;100.00;97739.98;271295;1274;23156;-89
2024/01/14 16:14:40;;;;;;;31.50;16.00;;;;;;;0.27;100.00;97732.50;271477;1271;23060;-88
2024/01/14 16:20:45;;;;;;;31.40;15.60;;;;;;;0.23;100.00;97724.45;272633;1274;22334;-89
2024/01/14 16:26:47;;;;;;;32.40;15.50;;;;;;;0.23;100.00;97721.99;270742;1275;22227;-90
2024/01/14 16:32:49;;;;;;;26.70;13.30;;;;;;;0.21;100.00;97710.84;270282;1275;22570;-90
2024/01/14 16:39:09;;;;;;;23.90;12.60;;;;;;;0.16;100.00;97707.64;271139;1275;22222;-90
2024/01/14 16:45:11;;;;;;;27.80;13.70;;;;;;;0.16;100.00;97701.79;271314;1276;22265;-90
2024/01/14 16:51:19;;;;;;;28.70;14.10;;;;;;;0.16;100.00;97705.32;270927;1275;24034;-90
2024/01/14 16:57:22;;;;;;;33.10;17.20;;;;;;;0.15;100.00;97698.02;271936;1274;22237;-89
2024/01/14 17:03:27;;;;;;;28.60;15.40;;;;;;;0.16;100.00;97693.10;272312;1274;22328;-91
2024/01/14 17:09:32;;;;;;;27.80;14.70;;;;;;;0.14;100.00;97688.36;270347;1274;24550;-90
2024/01/14 17:15:35;;;;;;;32.80;17.30;;;;;;;0.13;100.00;97688.03;271703;1275;22375;-90
2024/01/14 17:21:44;;;;;;;31.50;14.70;;;;;;;0.14;100.00;97677.42;272272;1275;23356;-90
2024/01/14 17:27:47;;;;;;;25.80;13.00;;;;;;;0.13;100.00;97666.00;271377;1275;22253;-90
2024/01/14 17:34:01;;;;;;;27.30;13.50;;;;;;;0.11;100.00;97666.89;270985;1274;22216;-89
2024/01/14 17:40:06;;;;;;;27.30;13.40;;;;;;;0.09;100.00;97655.82;270676;1275;25516;-89
2024/01/14 17:46:10;;;;;;;24.30;13.00;;;;;;;0.07;100.00;97654.86;256261;1275;20002112;-89
2024/01/14 17:52:23;;;;;;;27.60;14.50;;;;;;;0.06;100.00;97651.84;272405;1276;22193;-89
2024/01/14 17:58:28;;;;;;;25.50;13.50;;;;;;;0.06;100.00;97652.36;272233;1275;22324;-88
2024/01/14 18:04:39;;;;;;;46.20;18.70;;;;;;;0.06;100.00;97651.73;270299;1274;22555;-88
2024/01/14 18:10:55;;;;;;;28.50;14.70;;;;;;;0.07;100.00;97646.24;272305;1275;22221;-90
2024/01/14 18:16:58;;;;;;;18.60;10.80;;;;;;;0.07;100.00;97640.16;272368;1275;22116;-90
2024/01/14 18:23:07;;;;;;;30.80;13.50;;;;;;;0.07;100.00;97639.15;272376;1275;22832;-89
2024/01/14 18:29:50;;;;;;;27.10;13.90;;;;;;;0.07;100.00;97634.18;272378;1267;22394;-89
2024/01/14 18:35:52;;;;;;;25.80;14.50;;;;;;;0.04;100.00;97629.39;272219;1275;22193;-91
2024/01/14 18:41:58;;;;;;;33.50;14.20;;;;;;;0.00;100.00;97625.07;271750;1275;22385;-91
2024/01/14 18:48:02;;;;;;;30.90;14.40;;;;;;;-0.02;100.00;97626.36;272293;1274;22936;-91
2024/01/14 18:54:10;;;;;;;28.70;14.30;;;;;;;-0.01;100.00;97622.23;272267;1274;22213;-90
2024/01/14 19:00:41;;;;;;;30.40;14.50;;;;;;;-0.01;100.00;97617.89;271842;1275;23349;-90
2024/01/14 19:06:53;;;;;;;30.20;13.80;;;;;;;0.01;100.00;97614.55;272182;1267;22253;-90
2024/01/14 19:13:16;;;;;;;31.00;13.90;;;;;;;0.02;100.00;97611.19;272304;1275;22358;-91
2024/01/14 19:19:21;;;;;;;23.60;12.30;;;;;;;0.02;100.00;97608.35;271610;1275;22502;-92
2024/01/14 19:25:29;;;;;;;23.50;11.70;;;;;;;0.02;100.00;97609.10;271945;1277;22786;-90
2024/01/14 19:31:35;;;;;;;23.90;10.60;;;;;;;0.01;100.00;97611.86;272182;1274;22209;-90
2024/01/14 19:37:50;;;;;;;22.90;10.50;;;;;;;0.02;100.00;97609.81;272486;1275;22940;-90
2024/01/14 19:43:57;;;;;;;25.20;12.20;;;;;;;0.04;100.00;97611.18;272291;1277;22303;-90
2024/01/14 19:50:03;;;;;;;20.30;11.00;;;;;;;0.09;100.00;97601.45;272312;1275;22260;-90
2024/01/14 19:56:18;;;;;;;;;;;;;;;;;;;;;
2024/01/14 20:02:23;;;;;;;22.60;10.80;;;;;;;0.14;100.00;97581.80;272167;1275;22230;-90
2024/01/14 20:08:28;;;;;;;21.90;11.80;;;;;;;0.18;100.00;97573.83;272478;1275;22196;-90
2024/01/14 20:14:31;;;;;;;22.90;10.90;;;;;;;0.18;100.00;97566.84;272354;1274;23093;-90
2024/01/14 20:20:35;;;;;;;22.80;11.40;;;;;;;0.14;100.00;97560.09;272538;1274;22174;-91
2024/01/14 20:26:38;;;;;;;18.90;9.90;;;;;;;0.13;100.00;97558.69;272348;1276;22291;-90
2024/01/14 20:32:52;;;;;;;22.60;10.70;;;;;;;0.11;100.00;97552.58;272087;1275;22311;-90
2024/01/14 20:38:56;;;;;;;20.20;9.90;;;;;;;0.11;100.00;97544.41;272348;1275;23249;-89
2024/01/14 20:45:09;;;;;;;19.50;11.10;;;;;;;0.08;100.00;97544.40;272410;1275;22214;-90
2024/01/14 20:51:40;;;;;;;29.50;13.20;;;;;;;0.06;100.00;97537.54;272297;1273;22229;-90
2024/01/14 20:57:53;;;;;;;26.30;12.10;;;;;;;0.07;100.00;97532.85;272392;1277;23384;-90
2024/01/14 21:03:57;;;;;;;33.30;15.30;;;;;;;0.08;100.00;97532.33;272416;1275;22225;-90
2024/01/14 21:10:00;;;;;;;24.80;11.60;;;;;;;0.09;100.00;97526.74;272445;1275;22278;-91
2024/01/14 21:16:07;;;;;;;22.10;10.50;;;;;;;0.12;100.00;97518.83;272403;1275;22225;-91
2024/01/14 21:22:14;;;;;;;22.00;10.20;;;;;;;0.14;100.00;97509.92;272468;1280;23026;-92
2024/01/14 21:28:19;;;;;;;21.30;9.30;;;;;;;0.16;100.00;97510.18;272189;1275;224317;-91
2024/01/14 21:34:21;;;;;;;23.20;10.70;;;;;;;0.14;100.00;97508.05;272210;1275;22541;-91
2024/01/14 21:40:31;;;;;;;19.50;9.10;;;;;;;0.16;100.00;97498.11;272336;1278;22186;-90
2024/01/14 21:46:46;;;;;;;18.90;9.20;;;;;;;0.15;100.00;97489.79;271932;1276;22993;-92
2024/01/14 21:53:03;;;;;;;22.60;9.30;;;;;;;0.15;100.00;97480.56;272513;1275;23338;-91
2024/01/14 21:59:08;;;;;;;16.00;8.90;;;;;;;0.13;100.00;97476.38;271894;1259;22413;-91
2024/01/14 22:05:14;;;;;;;13.30;6.40;;;;;;;0.12;100.00;97474.46;270374;1276;23024;-92
2024/01/14 22:11:21;;;;;;;17.00;8.50;;;;;;;0.11;100.00;97474.67;271958;1275;22447;-91
2024/01/14 22:17:28;;;;;;;19.90;9.10;;;;;;;0.13;100.00;97462.05;270971;1275;22565;-90
2024/01/14 22:23:30;;;;;;;16.90;8.10;;;;;;;0.14;100.00;97448.13;271533;1277;22201;-91
2024/01/14 22:29:32;;;;;;;18.80;8.10;;;;;;;0.16;100.00;97434.40;272323;1276;22214;-90
2024/01/14 22:35:35;;;;;;;15.60;7.80;;;;;;;0.21;100.00;97425.05;272153;1275;27659;-90
2024/01/14 22:41:37;;;;;;;15.00;6.70;;;;;;;0.21;100.00;97413.60;271324;1276;22544;-91
2024/01/14 22:47:39;;;;;;;14.40;7.20;;;;;;;0.23;100.00;97402.72;271134;1275;22329;-90
2024/01/14 22:53:42;;;;;;;12.70;7.00;;;;;;;0.26;100.00;97389.05;268969;1275;22565;-90
2024/01/14 22:59:44;;;;;;;13.90;6.50;;;;;;;0.26;100.00;97380.50;271310;1276;23419;-92
2024/01/14 23:05:46;;;;;;;13.80;6.40;;;;;;;0.24;100.00;97363.53;272327;1277;22936;-91
2024/01/14 23:11:50;;;;;;;13.00;6.60;;;;;;;0.22;100.00;97354.33;270727;1274;22240;-91
2024/01/14 23:17:54;;;;;;;13.00;5.80;;;;;;;0.22;100.00;97346.80;271147;1277;22404;-92
2024/01/14 23:23:56;;;;;;;12.70;5.20;;;;;;;0.22;100.00;97340.29;270928;1273;22656;-91
2024/01/14 23:29:58;;;;;;;11.50;6.10;;;;;;;0.24;100.00;97321.09;271488;1279;23042;-90
2024/01/14 23:36:01;;;;;;;9.60;5.00;;;;;;;0.26;99.89;97314.23;271943;1279;22403;-90
2024/01/14 23:42:07;;;;;;;10.30;5.80;;;;;;;0.25;99.79;97311.81;271454;1276;22408;-91
2024/01/14 23:48:09;;;;;;;11.10;5.50;;;;;;;0.28;99.44;97299.76;271488;1277;22561;-89
2024/01/14 23:54:16;;;;;;;11.80;4.90;;;;;;;0.29;99.17;97282.41;269178;1279;22558;-90
